createdAt,value
2023-05-02T00:01:31.987Z,1.40
2023-05-02T00:04:35.272Z,1.05
2023-05-02T00:07:38.828Z,1.48
2023-05-02T00:10:41.943Z,1.33
2023-05-02T00:13:44.962Z,1.42
2023-05-02T00:16:48.007Z,1.40
2023-05-02T00:19:50.845Z,1.50
2023-05-02T00:22:54.164Z,1.60
2023-05-02T00:25:56.886Z,1.50
2023-05-02T00:29:00.845Z,1.40
2023-05-02T00:32:03.656Z,1.80
2023-05-02T00:35:07.364Z,1.90
2023-05-02T00:38:10.725Z,1.60
2023-05-02T00:41:14.224Z,1.92
2023-05-02T00:44:17.334Z,1.80
2023-05-02T00:47:21.179Z,1.37
2023-05-02T00:50:27.518Z,1.85
2023-05-02T00:53:31.469Z,1.50
2023-05-02T00:56:34.378Z,1.70
2023-05-02T00:59:38.086Z,1.87
2023-05-02T01:03:00.793Z,1.50
2023-05-02T01:06:18.110Z,1.60
2023-05-02T01:10:01.439Z,1.67
2023-05-02T01:13:09.356Z,1.80
2023-05-02T01:16:14.474Z,1.58
2023-05-02T01:19:45.160Z,1.40
2023-05-02T01:22:49.205Z,1.50
2023-05-02T01:26:09.836Z,1.62
2023-05-02T01:29:16.409Z,1.60
2023-05-02T01:32:22.402Z,1.62
2023-05-02T01:35:27.775Z,1.27
2023-05-02T01:38:34.079Z,1.48
2023-05-02T01:41:38.296Z,1.50
2023-05-02T01:44:43.198Z,1.62
2023-05-02T01:47:47.149Z,1.77
2023-05-02T01:50:52.053Z,1.50
2023-05-02T01:53:54.830Z,1.42
2023-05-02T01:56:59.222Z,1.95
2023-05-02T02:00:04.269Z,1.65
2023-05-02T02:03:17.313Z,1.77
2023-05-02T02:06:22.154Z,1.60
2023-05-02T02:09:24.939Z,1.90
2023-05-02T02:12:41.914Z,1.90
2023-05-02T02:15:49.248Z,1.60
2023-05-02T02:18:56.720Z,2.00
2023-05-02T02:22:01.918Z,2.10
2023-05-02T02:25:08.460Z,1.83
2023-05-02T02:28:11.904Z,2.22
2023-05-02T02:31:14.569Z,2.00
2023-05-02T02:34:18.051Z,1.65
2023-05-02T02:37:30.392Z,2.47
2023-05-02T02:40:48.031Z,2.40
2023-05-02T02:44:24.820Z,2.40
2023-05-02T02:47:30.082Z,2.20
2023-05-02T02:50:35.855Z,2.37
2023-05-02T02:53:50.902Z,2.80
2023-05-02T02:57:02.386Z,2.90
2023-05-02T03:00:27.618Z,2.95
2023-05-02T03:03:32.764Z,3.12
2023-05-02T03:06:36.287Z,3.50
2023-05-02T03:09:47.597Z,3.77
2023-05-02T03:12:51.147Z,3.45
2023-05-02T03:15:59.434Z,2.78
2023-05-02T03:19:03.747Z,2.90
2023-05-02T03:22:08.595Z,4.75
2023-05-02T03:25:11.878Z,2.97
2023-05-02T03:28:18.235Z,1.85
2023-05-02T03:31:24.674Z,2.20
2023-05-02T03:34:28.830Z,3.10
2023-05-02T03:37:34.578Z,2.70
2023-05-02T03:40:37.427Z,2.30
2023-05-02T03:43:41.018Z,3.00
2023-05-02T03:46:43.809Z,3.10
2023-05-02T03:49:47.106Z,2.97
2023-05-02T03:52:49.979Z,2.33
2023-05-02T03:55:53.804Z,3.10
2023-05-02T03:58:57.232Z,3.25
2023-05-02T04:02:00.552Z,2.95
2023-05-02T04:05:05.362Z,2.62
2023-05-02T04:08:08.707Z,3.30
2023-05-02T04:11:12.399Z,3.03
2023-05-02T04:14:15.191Z,3.47
2023-05-02T04:17:19.070Z,2.97
2023-05-02T04:20:22.132Z,2.80
2023-05-02T04:23:25.722Z,2.90
2023-05-02T04:26:29.655Z,2.67
2023-05-02T04:29:33.526Z,2.70
2023-05-02T04:32:37.129Z,2.20
2023-05-02T04:35:41.271Z,3.20
2023-05-02T04:38:47.375Z,4.05
2023-05-02T04:41:51.059Z,2.30
2023-05-02T04:44:53.859Z,2.90
2023-05-02T04:47:57.122Z,3.85
2023-05-02T04:51:00.268Z,3.37
2023-05-02T04:54:05.087Z,2.85
2023-05-02T04:57:08.221Z,3.40
2023-05-02T05:00:12.516Z,2.62
2023-05-02T05:03:15.509Z,3.22
2023-05-02T05:06:19.652Z,1.83
2023-05-02T05:09:22.596Z,2.92
2023-05-02T05:12:26.397Z,2.90
2023-05-02T05:15:29.406Z,2.65
2023-05-02T05:18:34.338Z,2.50
2023-05-02T05:21:37.249Z,2.53
2023-05-02T05:24:40.752Z,3.08
2023-05-02T05:27:43.833Z,2.53
2023-05-02T05:30:47.461Z,2.17
2023-05-02T05:33:51.740Z,2.75
2023-05-02T05:36:55.640Z,2.97
2023-05-02T05:39:58.432Z,4.12
2023-05-02T05:43:01.475Z,2.50
2023-05-02T05:46:04.756Z,3.75
2023-05-02T05:49:08.177Z,4.07
2023-05-02T05:52:11.640Z,3.72
2023-05-02T05:55:14.978Z,2.85
2023-05-02T05:58:18.452Z,3.90
2023-05-02T06:01:21.647Z,3.58
2023-05-02T06:04:25.113Z,3.30
2023-05-02T06:07:28.165Z,2.80
2023-05-02T06:10:31.760Z,3.72
2023-05-02T06:13:34.588Z,3.70
2023-05-02T06:16:38.036Z,3.53
2023-05-02T06:19:41.418Z,3.62
2023-05-02T06:22:44.533Z,3.00
2023-05-02T06:25:47.256Z,3.12
2023-05-02T06:28:50.218Z,3.40
2023-05-02T06:31:56.316Z,3.30
2023-05-02T06:34:59.582Z,2.40
2023-05-02T06:38:02.206Z,2.37
2023-05-02T06:41:05.091Z,2.92
2023-05-02T06:44:07.906Z,2.27
2023-05-02T06:47:11.072Z,3.10
2023-05-02T06:50:13.929Z,2.90
2023-05-02T06:53:17.030Z,2.97
2023-05-02T06:56:19.709Z,2.90
2023-05-02T06:59:22.777Z,2.43
2023-05-02T07:02:25.934Z,3.03
2023-05-02T07:05:29.997Z,2.20
2023-05-02T07:08:32.865Z,2.40
2023-05-02T07:11:36.348Z,3.03
2023-05-02T07:14:39.610Z,3.30
2023-05-02T07:17:42.704Z,3.40
2023-05-02T07:20:45.400Z,2.62
2023-05-02T07:23:57.829Z,2.60
2023-05-02T07:27:00.980Z,3.45
2023-05-02T07:30:04.548Z,2.90
2023-05-02T07:33:07.810Z,3.03
2023-05-02T07:36:10.984Z,3.75
2023-05-02T07:39:13.761Z,2.60
2023-05-02T07:42:16.925Z,2.47
2023-05-02T07:45:19.796Z,3.13
2023-05-02T07:48:23.475Z,3.80
2023-05-02T07:51:27.198Z,2.95
2023-05-02T07:54:30.567Z,3.40
2023-05-02T07:57:37.852Z,4.10
2023-05-02T08:00:41.154Z,3.30
2023-05-02T08:03:45.097Z,3.67
2023-05-02T08:06:48.035Z,3.53
2023-05-02T08:09:51.689Z,3.28
2023-05-02T08:12:54.556Z,3.55
2023-05-02T08:15:58.642Z,2.93
2023-05-02T08:19:01.535Z,2.65
2023-05-02T08:22:04.535Z,4.28
2023-05-02T08:25:07.482Z,3.40
2023-05-02T08:28:10.551Z,3.92
2023-05-02T08:31:13.269Z,4.13
2023-05-02T08:34:16.651Z,3.50
2023-05-02T08:37:19.613Z,3.20
2023-05-02T08:40:37.843Z,3.50
2023-05-02T08:43:44.212Z,3.15
2023-05-02T08:46:50.207Z,3.33
2023-05-02T08:49:56.642Z,4.28
2023-05-02T08:53:00.661Z,3.90
2023-05-02T08:56:04.091Z,3.45
2023-05-02T08:59:08.354Z,3.67
2023-05-02T09:02:24.134Z,3.23
2023-05-02T09:05:27.642Z,3.55
2023-05-02T09:08:30.710Z,3.50
2023-05-02T09:11:33.998Z,3.00
2023-05-02T09:14:36.677Z,3.00
2023-05-02T09:17:41.874Z,3.27
2023-05-02T09:20:45.213Z,3.15
2023-05-02T09:24:03.556Z,3.30
2023-05-02T09:27:06.701Z,2.95
2023-05-02T09:30:39.344Z,3.30
2023-05-02T09:33:43.201Z,3.13
2023-05-02T09:36:48.241Z,3.33
2023-05-02T09:40:07.208Z,2.97
2023-05-02T09:43:17.339Z,2.80
2023-05-02T09:46:20.575Z,3.03
2023-05-02T09:49:45.327Z,2.60
2023-05-02T09:53:02.792Z,2.65
2023-05-02T09:56:06.209Z,2.60
2023-05-02T09:59:14.882Z,2.92
2023-05-02T10:02:18.309Z,2.65
2023-05-02T10:05:22.195Z,2.90
2023-05-02T10:08:28.996Z,2.75
2023-05-02T10:11:34.216Z,3.05
2023-05-02T10:14:41.837Z,2.75
2023-05-02T10:17:53.371Z,3.00
2023-05-02T10:21:00.493Z,2.80
2023-05-02T10:24:04.484Z,2.50
2023-05-02T10:27:07.878Z,2.97
2023-05-02T10:30:13.914Z,2.62
2023-05-02T10:33:19.191Z,2.87
2023-05-02T10:36:23.888Z,3.10
2023-05-02T10:39:27.919Z,3.25
2023-05-02T10:42:31.721Z,2.62
2023-05-02T10:45:37.994Z,3.40
2023-05-02T10:48:41.214Z,3.42
2023-05-02T10:51:43.990Z,3.23
2023-05-02T10:54:47.066Z,3.08
2023-05-02T10:58:01.535Z,2.90
2023-05-02T11:01:32.497Z,2.90
2023-05-02T11:05:07.183Z,3.20
2023-05-02T11:08:16.883Z,2.90
2023-05-02T11:11:43.637Z,2.33
2023-05-02T11:14:48.735Z,3.00
2023-05-02T11:18:02.025Z,2.90
2023-05-02T11:21:32.248Z,2.60
2023-05-02T11:24:43.002Z,3.40
2023-05-02T11:27:49.432Z,2.65
2023-05-02T11:30:52.126Z,2.80
2023-05-02T11:33:59.831Z,2.90
2023-05-02T11:37:11.882Z,2.67
2023-05-02T11:40:15.442Z,3.03
2023-05-02T11:43:19.374Z,3.33
2023-05-02T11:46:23.190Z,2.53
2023-05-02T11:49:26.027Z,3.08
2023-05-02T11:52:30.866Z,3.28
2023-05-02T11:55:33.620Z,3.00
2023-05-02T11:58:36.721Z,2.67
2023-05-02T12:01:48.642Z,2.78
2023-05-02T12:04:51.738Z,2.72
2023-05-02T12:07:54.639Z,3.17
2023-05-02T12:10:57.794Z,3.17
2023-05-02T12:14:00.666Z,3.17
2023-05-02T12:17:04.403Z,3.20
2023-05-02T12:20:09.542Z,3.15
2023-05-02T12:23:13.411Z,2.90
2023-05-02T12:26:25.744Z,3.67
2023-05-02T12:29:42.027Z,3.03
2023-05-02T12:32:45.803Z,2.80
2023-05-02T12:35:49.148Z,3.25
2023-05-02T12:39:02.311Z,3.10
2023-05-02T12:42:12.515Z,2.93
2023-05-02T12:45:18.871Z,2.97
2023-05-02T12:48:27.304Z,2.65
2023-05-02T12:51:31.734Z,2.85
2023-05-02T12:54:34.871Z,2.75
2023-05-02T12:57:37.594Z,3.10
2023-05-02T13:00:45.560Z,3.05
2023-05-02T13:03:51.665Z,3.05
2023-05-02T13:06:54.987Z,2.47
2023-05-02T13:09:57.692Z,2.90
2023-05-02T13:13:01.186Z,2.80
2023-05-02T13:16:04.202Z,2.70
2023-05-02T13:19:07.511Z,2.65
2023-05-02T13:22:11.739Z,2.45
2023-05-02T13:25:14.978Z,3.08
2023-05-02T13:28:17.693Z,2.70
2023-05-02T13:31:20.924Z,2.80
2023-05-02T13:34:23.689Z,2.85
2023-05-02T13:37:26.983Z,2.35
2023-05-02T13:40:29.862Z,2.72
2023-05-02T13:43:33.446Z,2.73
2023-05-02T13:46:38.083Z,2.78
2023-05-02T13:49:41.375Z,3.10
2023-05-02T13:52:45.918Z,2.60
2023-05-02T13:55:51.304Z,2.85
2023-05-02T13:58:54.247Z,2.77
2023-05-02T14:01:57.217Z,2.90
2023-05-02T14:05:00.306Z,2.83
2023-05-02T14:08:03.225Z,3.00
2023-05-02T14:11:07.373Z,3.47
2023-05-02T14:14:12.680Z,2.60
2023-05-02T14:17:15.905Z,3.08
2023-05-02T14:20:19.062Z,2.58
2023-05-02T14:23:23.244Z,3.60
2023-05-02T14:26:26.624Z,5.35
2023-05-02T14:29:29.794Z,2.70
2023-05-02T14:32:34.451Z,2.15
2023-05-02T14:35:38.738Z,2.83
2023-05-02T14:38:41.646Z,2.72
2023-05-02T14:41:44.723Z,3.03
2023-05-02T14:44:47.512Z,2.70
2023-05-02T14:47:53.323Z,15.07
2023-05-02T14:50:57.518Z,6.62
2023-05-02T14:54:00.704Z,3.65
2023-05-02T14:57:04.035Z,3.85
2023-05-02T15:00:08.759Z,3.80
2023-05-02T15:03:12.424Z,4.35
2023-05-02T15:06:20.302Z,5.32
2023-05-02T15:09:26.677Z,4.12
2023-05-02T15:12:30.049Z,4.43
2023-05-02T15:15:32.831Z,5.60
2023-05-02T15:18:36.132Z,4.87
2023-05-02T15:21:38.788Z,6.37
2023-05-02T15:24:42.090Z,6.93
2023-05-02T15:27:44.794Z,6.30
2023-05-02T15:30:49.665Z,6.17
2023-05-02T15:33:52.584Z,7.32
2023-05-02T15:36:57.951Z,7.45
2023-05-02T15:40:01.695Z,6.87
2023-05-02T15:43:05.795Z,7.55
2023-05-02T15:46:08.920Z,7.23
2023-05-02T15:49:12.043Z,7.20
2023-05-02T15:52:14.664Z,8.32
2023-05-02T15:55:17.997Z,8.07
2023-05-02T15:58:21.245Z,7.90
2023-05-02T16:01:24.474Z,8.70
2023-05-02T16:04:29.331Z,7.25
2023-05-02T16:07:32.316Z,7.68
2023-05-02T16:10:36.756Z,8.13
2023-05-02T16:13:40.651Z,8.55
2023-05-02T16:16:44.723Z,8.57
2023-05-02T16:19:47.655Z,7.85
2023-05-02T16:22:51.606Z,7.80
2023-05-02T16:26:01.813Z,8.38
2023-05-02T16:29:04.800Z,7.60
2023-05-02T16:32:08.567Z,7.83
2023-05-02T16:35:13.284Z,8.07
2023-05-02T16:38:16.462Z,8.68
2023-05-02T16:41:19.667Z,7.80
2023-05-02T16:44:22.680Z,8.70
2023-05-02T16:47:25.869Z,7.73
2023-05-02T16:50:28.629Z,8.27
2023-05-02T16:53:31.998Z,7.95
2023-05-02T16:56:34.929Z,7.87
2023-05-02T16:59:38.210Z,8.25
2023-05-02T17:02:41.185Z,7.80
2023-05-02T17:05:44.318Z,7.80
2023-05-02T17:08:47.068Z,8.10
2023-05-02T17:11:50.465Z,7.40
2023-05-02T17:14:53.501Z,8.10
2023-05-02T17:17:56.721Z,8.07
2023-05-02T17:21:00.931Z,7.90
2023-05-02T17:24:05.493Z,8.57
2023-05-02T17:27:08.428Z,9.02
2023-05-02T17:30:13.737Z,8.35
2023-05-02T17:33:16.669Z,8.40
2023-05-02T17:36:19.855Z,8.20
2023-05-02T17:39:23.237Z,8.60
2023-05-02T17:42:26.507Z,9.05
2023-05-02T17:45:29.613Z,9.13
2023-05-02T17:48:32.821Z,8.23
2023-05-02T17:51:36.556Z,7.90
2023-05-02T17:54:39.815Z,8.07
2023-05-02T17:57:42.919Z,8.88
2023-05-02T18:00:46.490Z,7.95
2023-05-02T18:03:50.320Z,7.07
2023-05-02T18:06:53.839Z,5.72
2023-05-02T18:09:57.994Z,7.15
2023-05-02T18:13:00.788Z,8.07
2023-05-02T18:16:05.137Z,6.95
2023-05-02T18:19:08.451Z,7.33
2023-05-02T18:22:13.447Z,7.55
2023-05-02T18:25:17.380Z,7.12
2023-05-02T18:28:20.939Z,6.90
2023-05-02T18:31:24.114Z,7.07
2023-05-02T18:34:32.566Z,7.40
2023-05-02T18:37:35.763Z,7.35
2023-05-02T18:40:39.341Z,7.40
2023-05-02T18:43:42.860Z,7.35
2023-05-02T18:46:46.289Z,7.68
2023-05-02T18:49:50.617Z,6.80
2023-05-02T18:52:54.078Z,7.07
2023-05-02T18:55:58.168Z,7.12
2023-05-02T18:59:02.315Z,7.10
2023-05-02T19:02:05.735Z,7.35
2023-05-02T19:05:10.290Z,7.10
2023-05-02T19:08:13.514Z,6.87
2023-05-02T19:11:17.827Z,7.90
2023-05-02T19:14:21.302Z,7.97
2023-05-02T19:17:27.131Z,8.50
2023-05-02T19:20:30.712Z,7.40
2023-05-02T19:23:36.204Z,8.18
2023-05-02T19:26:39.780Z,8.00
2023-05-02T19:29:44.644Z,8.00
2023-05-02T19:32:48.358Z,8.55
2023-05-02T19:35:54.772Z,9.50
2023-05-02T19:39:01.429Z,8.00
2023-05-02T19:42:05.814Z,7.35
2023-05-02T19:45:10.612Z,7.57
2023-05-02T19:48:14.745Z,8.82
2023-05-02T19:51:25.462Z,8.03
2023-05-02T19:54:29.007Z,8.02
2023-05-02T19:57:32.435Z,8.23
2023-05-02T20:00:36.096Z,8.40
2023-05-02T20:03:47.299Z,8.73
2023-05-02T20:06:50.442Z,8.20
2023-05-02T20:09:53.890Z,8.25
2023-05-02T20:12:56.921Z,9.07
2023-05-02T20:16:00.372Z,9.20
2023-05-02T20:19:04.856Z,8.43
2023-05-02T20:22:08.365Z,8.20
2023-05-02T20:25:12.102Z,8.52
2023-05-02T20:28:15.696Z,8.40
2023-05-02T20:31:18.456Z,8.55
2023-05-02T20:34:22.166Z,8.93
2023-05-02T20:37:25.779Z,8.53
2023-05-02T20:40:30.902Z,9.05
2023-05-02T20:43:35.596Z,9.23
2023-05-02T20:46:38.675Z,8.90
2023-05-02T20:49:41.493Z,8.80
2023-05-02T20:52:45.216Z,8.63
2023-05-02T20:55:49.122Z,8.90
2023-05-02T20:58:53.196Z,8.88
2023-05-02T21:01:57.127Z,8.80
2023-05-02T21:05:00.510Z,8.85
2023-05-02T21:08:03.893Z,8.17
2023-05-02T21:11:17.241Z,8.50
2023-05-02T21:14:23.398Z,8.48
2023-05-02T21:17:26.689Z,8.55
2023-05-02T21:20:29.876Z,8.70
2023-05-02T21:23:33.402Z,7.50
2023-05-02T21:26:36.186Z,7.80
2023-05-02T21:29:39.161Z,8.98
2023-05-02T21:32:42.658Z,8.20
2023-05-02T21:35:46.572Z,7.78
2023-05-02T21:38:49.263Z,7.63
2023-05-02T21:41:52.308Z,7.80
2023-05-02T21:44:55.419Z,7.90
2023-05-02T21:47:58.504Z,7.68
2023-05-02T21:51:01.310Z,7.57
2023-05-02T21:54:04.700Z,7.23
2023-05-02T21:57:07.370Z,7.18
2023-05-02T22:00:13.327Z,7.68
2023-05-02T22:03:17.026Z,6.78
2023-05-02T22:06:20.871Z,7.03
2023-05-02T22:09:24.023Z,6.73
2023-05-02T22:12:27.005Z,7.05
2023-05-02T22:15:30.907Z,7.37
2023-05-02T22:18:33.515Z,6.72
2023-05-02T22:21:36.564Z,6.85
2023-05-02T22:24:39.287Z,7.00
2023-05-02T22:27:42.389Z,6.80
2023-05-02T22:30:45.308Z,6.57
2023-05-02T22:33:50.210Z,6.40
2023-05-02T22:36:53.047Z,6.75
2023-05-02T22:39:56.429Z,6.60
2023-05-02T22:42:59.418Z,6.78
2023-05-02T22:46:02.713Z,6.43
2023-05-02T22:49:07.941Z,6.40
2023-05-02T22:52:11.372Z,6.75
2023-05-02T22:55:14.243Z,6.80
2023-05-02T22:58:17.530Z,6.82
2023-05-02T23:01:20.276Z,6.95
2023-05-02T23:04:23.575Z,6.53
2023-05-02T23:07:26.633Z,6.60
2023-05-02T23:10:29.861Z,6.53
2023-05-02T23:13:32.683Z,6.43
2023-05-02T23:16:35.779Z,5.55
2023-05-02T23:19:38.501Z,6.30
2023-05-02T23:22:46.125Z,6.35
2023-05-02T23:25:49.082Z,7.90
2023-05-02T23:28:52.214Z,7.20
2023-05-02T23:31:55.656Z,6.50
2023-05-02T23:34:58.802Z,6.32
2023-05-02T23:38:07.881Z,6.15
2023-05-02T23:41:11.113Z,6.57
2023-05-02T23:44:13.871Z,6.20
2023-05-02T23:47:17.014Z,6.97
2023-05-02T23:50:19.986Z,5.97
2023-05-02T23:53:22.987Z,6.50
2023-05-02T23:56:26.287Z,6.10
2023-05-02T23:59:29.327Z,6.03
